Time;durP1;ratioP1;P1;durP2;ratioP2;P2;SDS_P1;SDS_P2;PMS_P1;PMS_P2;Temp;Humidity;BMP_temperature;BMP_pressure;BME280_temperature;BME280_humidity;BME280_pressure;Samples;Min_cycle;Max_cycle;Signal;HPM_P1;HPM_P2
2022/07/03 00:00:21;;;;;;;;;;;;;;;;;;2140397;27;19923;-44
2022/07/03 00:01:22;;;;;;;;;;;;;;;;;;2140375;27;19923;-44
2022/07/03 00:02:23;;;;;;;;;;;;;;;;;;2140560;27;19923;-43
2022/07/03 00:03:24;;;;;;;;;;;;;;;;;;2140300;27;20318;-43
2022/07/03 00:04:25;;;;;;;;;;;;;;;;;;2140465;27;20009;-43
2022/07/03 00:05:26;;;;;;;;;;;;;;;;;;2140343;27;19982;-44
2022/07/03 00:06:27;;;;;;;;;;;;;;;;;;2140347;27;19923;-44
2022/07/03 00:07:27;;;;;;;;;;;;;;;;;;2140422;27;19929;-44
2022/07/03 00:08:28;;;;;;;;;;;;;;;;;;2140276;27;19927;-44
2022/07/03 00:09:29;;;;;;;;;;;;;;;;;;2140311;27;19923;-43
2022/07/03 00:10:30;;;;;;;;;;;;;;;;;;2140496;27;20002;-44
2022/07/03 00:11:31;;;;;;;;;;;;;;;;;;2134663;27;19931;-45
2022/07/03 00:12:32;;;;;;;;;;;;;;;;;;2131851;27;19923;-43
2022/07/03 00:13:33;;;;;;;;;;;;;;;;;;2131751;27;19930;-43
2022/07/03 00:14:34;;;;;;;;;;;;;;;;;;2131773;27;19975;-44
2022/07/03 00:15:35;;;;;;;;;;;;;;;;;;2131682;27;19927;-43
2022/07/03 00:16:35;;;;;;;;;;;;;;;;;;2131816;27;19930;-43
2022/07/03 00:17:37;;;;;;;;;;;;;;;;;;2131704;27;19930;-43
2022/07/03 00:18:37;;;;;;;;;;;;;;;;;;2131792;27;19923;-43
2022/07/03 00:19:38;;;;;;;;;;;;;;;;;;2131849;27;20002;-43
2022/07/03 00:20:39;;;;;;;;;;;;;;;;;;2131591;27;20291;-44
2022/07/03 00:21:41;;;;;;;;;;;;;;;;;;2131607;27;19923;-44
2022/07/03 00:22:42;;;;;;;;;;;;;;;;;;2131631;27;19923;-45
2022/07/03 00:23:43;;;;;;;;;;;;;;;;;;2131671;27;19959;-43
2022/07/03 00:24:44;;;;;;;;;;;;;;;;;;2131648;27;19927;-45
2022/07/03 00:25:45;;;;;;;;;;;;;;;;;;2131967;27;19968;-47
2022/07/03 00:26:46;;;;;;;;;;;;;;;;;;2131560;27;20313;-45
2022/07/03 00:27:47;;;;;;;;;;;;;;;;;;2131788;27;19927;-45
2022/07/03 00:28:48;;;;;;;;;;;;;;;;;;2131560;27;20014;-45
2022/07/03 00:29:49;;;;;;;;;;;;;;;;;;2131566;27;20407;-47
2022/07/03 00:30:49;;;;;;;;;;;;;;;;;;2131692;27;19923;-46
2022/07/03 00:31:50;;;;;;;;;;;;;;;;;;2131663;27;19927;-45
2022/07/03 00:32:51;;;;;;;;;;;;;;;;;;2131712;27;19984;-43
2022/07/03 00:33:52;;;;;;;;;;;;;;;;;;2131747;27;19956;-43
2022/07/03 00:34:54;;;;;;;;;;;;;;;;;;2131872;27;19983;-43
2022/07/03 00:35:55;;;;;;;;;;;;;;;;;;2131575;27;19943;-43
2022/07/03 00:36:56;;;;;;;;;;;;;;;;;;2131597;27;20046;-43
2022/07/03 00:37:56;;;;;;;;;;;;;;;;;;2131686;27;20014;-44
2022/07/03 00:38:57;;;;;;;;;;;;;;;;;;2131596;27;19948;-43
2022/07/03 00:39:58;;;;;;;;;;;;;;;;;;2131528;27;20014;-43
2022/07/03 00:40:59;;;;;;;;;;;;;;;;;;2131544;27;19923;-43
2022/07/03 00:42:00;;;;;;;;;;;;;;;;;;2137076;27;20026;-43
2022/07/03 00:43:01;;;;;;;;;;;;;;;;;;2140154;27;19930;-43
2022/07/03 00:44:02;;;;;;;;;;;;;;;;;;2140283;27;19923;-43
2022/07/03 00:45:03;;;;;;;;;;;;;;;;;;2141162;27;20404;-43
2022/07/03 00:46:04;;;;;;;;;;;;;;;;;;2141984;27;19967;-43
2022/07/03 00:47:05;;;;;;;;;;;;;;;;;;2141753;27;19926;-43
2022/07/03 00:48:06;;;;;;;;;;;;;;;;;;2141694;27;19922;-44
2022/07/03 00:49:07;;;;;;;;;;;;;;;;;;2141623;27;19923;-43
2022/07/03 00:50:07;;;;;;;;;;;;;;;;;;2141815;27;19923;-43
2022/07/03 00:51:09;;;;;;;;;;;;;;;;;;2141700;27;20391;-43
2022/07/03 00:52:09;;;;;;;;;;;;;;;;;;2141846;27;19929;-44
2022/07/03 00:53:11;;;;;;;;;;;;;;;;;;2141958;27;20302;-43
2022/07/03 00:54:12;;;;;;;;;;;;;;;;;;2141583;27;19923;-43
2022/07/03 00:55:13;;;;;;;;;;;;;;;;;;2141661;27;19954;-43
2022/07/03 00:56:14;;;;;;;;;;;;;;;;;;2141822;27;19993;-46
2022/07/03 00:57:15;;;;;;;;;;;;;;;;;;2141739;27;20189;-45
2022/07/03 00:58:16;;;;;;;;;;;;;;;;;;2141901;27;19923;-45
2022/07/03 00:59:17;;;;;;;;;;;;;;;;;;2141633;27;19930;-46
2022/07/03 01:00:18;;;;;;;;;;;;;;;;;;2141745;27;19929;-46
2022/07/03 01:01:19;;;;;;;;;;;;;;;;;;2141584;27;20309;-46
2022/07/03 01:02:19;;;;;;;;;;;;;;;;;;2141750;27;19929;-45
2022/07/03 01:03:20;;;;;;;;;;;;;;;;;;2141543;27;19923;-46
2022/07/03 01:04:22;;;;;;;;;;;;;;;;;;2141810;27;19975;-46
2022/07/03 01:05:23;;;;;;;;;;;;;;;;;;2141628;27;19954;-46
2022/07/03 01:06:23;;;;;;;;;;;;;;;;;;2141477;27;20179;-46
2022/07/03 01:07:24;;;;;;;;;;;;;;;;;;2141549;27;19923;-47
2022/07/03 01:08:25;;;;;;;;;;;;;;;;;;2141629;27;20055;-46
2022/07/03 01:09:26;;;;;;;;;;;;;;;;;;2141542;27;19971;-46
2022/07/03 01:10:27;;;;;;;;;;;;;;;;;;2141649;27;19960;-46
2022/07/03 01:11:28;;;;;;;;;;;;;;;;;;2136881;27;19923;-43
2022/07/03 01:12:28;;;;;;;;;;;;;;;;;;2133006;27;19934;-46
2022/07/03 01:13:29;;;;;;;;;;;;;;;;;;2133172;27;19923;-45
2022/07/03 01:14:30;;;;;;;;;;;;;;;;;;2132865;27;19930;-46
2022/07/03 01:15:31;;;;;;;;;;;;;;;;;;2132951;27;19923;-45
2022/07/03 01:16:32;;;;;;;;;;;;;;;;;;2132916;27;20015;-46
2022/07/03 01:17:33;;;;;;;;;;;;;;;;;;2133008;27;19945;-45
2022/07/03 01:18:34;;;;;;;;;;;;;;;;;;2132873;27;20147;-45
2022/07/03 01:19:35;;;;;;;;;;;;;;;;;;2133220;27;19933;-44
2022/07/03 01:20:36;;;;;;;;;;;;;;;;;;2132795;27;20083;-43
2022/07/03 01:21:37;;;;;;;;;;;;;;;;;;2132701;27;20026;-43
2022/07/03 01:22:38;;;;;;;;;;;;;;;;;;2132962;27;19923;-43
2022/07/03 01:23:39;;;;;;;;;;;;;;;;;;2132701;27;19923;-44
2022/07/03 01:24:40;;;;;;;;;;;;;;;;;;2132940;27;19923;-43
2022/07/03 01:25:41;;;;;;;;;;;;;;;;;;2132865;27;20272;-44
2022/07/03 01:26:42;;;;;;;;;;;;;;;;;;2132803;27;20010;-43
2022/07/03 01:27:43;;;;;;;;;;;;;;;;;;2132791;27;19923;-44
2022/07/03 01:28:43;;;;;;;;;;;;;;;;;;2132853;27;19923;-43
2022/07/03 01:29:45;;;;;;;;;;;;;;;;;;2132887;27;19931;-42
2022/07/03 01:30:46;;;;;;;;;;;;;;;;;;2132873;27;19923;-43
2022/07/03 01:31:46;;;;;;;;;;;;;;;;;;2132854;27;19979;-43
2022/07/03 01:32:48;;;;;;;;;;;;;;;;;;2132962;27;20363;-43
2022/07/03 01:33:48;;;;;;;;;;;;;;;;;;2132625;27;20051;-43
2022/07/03 01:34:49;;;;;;;;;;;;;;;;;;2132819;27;20200;-43
2022/07/03 01:35:50;;;;;;;;;;;;;;;;;;2132766;27;20017;-43
2022/07/03 01:36:51;;;;;;;;;;;;;;;;;;2132624;27;19923;-43
2022/07/03 01:37:52;;;;;;;;;;;;;;;;;;2135059;27;19954;-43
2022/07/03 01:38:53;;;;;;;;;;;;;;;;;;2141141;27;19922;-43
2022/07/03 01:39:54;;;;;;;;;;;;;;;;;;2141252;27;20504;-43
2022/07/03 01:40:56;;;;;;;;;;;;;;;;;;2141255;27;20401;-44
2022/07/03 01:41:57;;;;;;;;;;;;;;;;;;2141567;27;19923;-43
2022/07/03 01:42:58;;;;;;;;;;;;;;;;;;2141630;27;19923;-45
2022/07/03 01:44:01;;;;;;;;;;;;;;;;;;2141240;27;19962;-45
2022/07/03 01:45:02;;;;;;;;;;;;;;;;;;2141519;27;19954;-44
2022/07/03 01:46:03;;;;;;;;;;;;;;;;;;2141164;27;19923;-45
2022/07/03 01:47:04;;;;;;;;;;;;;;;;;;2141459;27;20195;-44
2022/07/03 01:48:05;;;;;;;;;;;;;;;;;;2141305;27;19939;-46
2022/07/03 01:49:06;;;;;;;;;;;;;;;;;;2141444;27;19958;-46
2022/07/03 01:50:07;;;;;;;;;;;;;;;;;;2141262;27;19977;-46
2022/07/03 01:51:08;;;;;;;;;;;;;;;;;;2141368;27;20009;-45
2022/07/03 01:52:09;;;;;;;;;;;;;;;;;;2141516;27;19923;-46
2022/07/03 01:53:29;;;;;;;;;;;;;;;;;;2141437;27;19934;-46
2022/07/03 01:54:30;;;;;;;;;;;;;;;;;;2141213;27;19961;-46
2022/07/03 01:55:31;;;;;;;;;;;;;;;;;;2140764;27;20371;-45
2022/07/03 01:56:32;;;;;;;;;;;;;;;;;;2141287;27;19967;-45
2022/07/03 01:57:33;;;;;;;;;;;;;;;;;;2141134;27;19927;-46
2022/07/03 01:58:34;;;;;;;;;;;;;;;;;;2141509;27;19922;-44
2022/07/03 01:59:35;;;;;;;;;;;;;;;;;;2141217;27;20013;-45
2022/07/03 02:00:36;;;;;;;;;;;;;;;;;;2141182;27;20005;-45
2022/07/03 02:01:37;;;;;;;;;;;;;;;;;;2141363;27;20022;-43
2022/07/03 02:02:38;;;;;;;;;;;;;;;;;;2141392;27;19970;-43
2022/07/03 02:03:40;;;;;;;;;;;;;;;;;;2141534;27;20375;-47
2022/07/03 02:04:41;;;;;;;;;;;;;;;;;;2141387;27;20418;-45
2022/07/03 02:05:43;;;;;;;;;;;;;;;;;;2141325;27;20007;-46
2022/07/03 02:06:43;;;;;;;;;;;;;;;;;;2141184;27;20067;-46
2022/07/03 02:07:44;;;;;;;;;;;;;;;;;;2141323;27;20004;-43
2022/07/03 02:08:45;;;;;;;;;;;;;;;;;;2141320;27;20067;-44
2022/07/03 02:10:03;;;;;;;;;;;;;;;;;;2141357;27;19930;-46
2022/07/03 02:11:04;;;;;;;;;;;;;;;;;;2139395;27;19926;-46
2022/07/03 02:12:05;;;;;;;;;;;;;;;;;;2132594;27;19927;-45
2022/07/03 02:13:05;;;;;;;;;;;;;;;;;;2132626;27;19923;-45
2022/07/03 02:14:07;;;;;;;;;;;;;;;;;;2132381;27;19949;-46
2022/07/03 02:15:07;;;;;;;;;;;;;;;;;;2132458;27;20017;-47
2022/07/03 02:16:08;;;;;;;;;;;;;;;;;;2132471;27;19990;-45
2022/07/03 02:17:09;;;;;;;;;;;;;;;;;;2132505;27;20169;-45
2022/07/03 02:18:10;;;;;;;;;;;;;;;;;;2132614;27;20394;-45
2022/07/03 02:19:11;;;;;;;;;;;;;;;;;;2132393;27;20029;-45
2022/07/03 02:20:12;;;;;;;;;;;;;;;;;;2132414;27;20368;-45
2022/07/03 02:21:12;;;;;;;;;;;;;;;;;;2132350;27;20048;-45
2022/07/03 02:22:13;;;;;;;;;;;;;;;;;;2132607;27;19951;-44
2022/07/03 02:23:14;;;;;;;;;;;;;;;;;;2132444;27;19927;-43
2022/07/03 02:24:15;;;;;;;;;;;;;;;;;;2132335;27;19928;-43
2022/07/03 02:25:16;;;;;;;;;;;;;;;;;;2132439;27;19930;-43
2022/07/03 02:26:17;;;;;;;;;;;;;;;;;;2132740;27;19923;-44
2022/07/03 02:27:18;;;;;;;;;;;;;;;;;;2132379;27;20372;-43
2022/07/03 02:28:19;;;;;;;;;;;;;;;;;;2132629;27;19923;-46
2022/07/03 02:29:20;;;;;;;;;;;;;;;;;;2132773;27;19923;-45
2022/07/03 02:30:21;;;;;;;;;;;;;;;;;;2132326;27;20304;-45
2022/07/03 02:31:22;;;;;;;;;;;;;;;;;;2132316;27;20033;-45
2022/07/03 02:32:23;;;;;;;;;;;;;;;;;;2132474;27;19923;-45
2022/07/03 02:33:24;;;;;;;;;;;;;;;;;;2132311;27;20018;-46
2022/07/03 02:34:25;;;;;;;;;;;;;;;;;;2137351;27;20298;-43
2022/07/03 02:35:25;;;;;;;;;;;;;;;;;;2140950;27;19955;-43
2022/07/03 02:36:26;;;;;;;;;;;;;;;;;;2141064;27;20389;-44
2022/07/03 02:37:27;;;;;;;;;;;;;;;;;;2140985;27;20291;-45
2022/07/03 02:38:28;;;;;;;;;;;;;;;;;;2140893;27;19926;-44
2022/07/03 02:39:29;;;;;;;;;;;;;;;;;;2141650;27;20018;-45
2022/07/03 02:40:30;;;;;;;;;;;;;;;;;;2140898;27;19923;-47
2022/07/03 02:41:30;;;;;;;;;;;;;;;;;;2141008;27;19945;-46
2022/07/03 02:42:31;;;;;;;;;;;;;;;;;;2140848;27;19922;-46
2022/07/03 02:43:32;;;;;;;;;;;;;;;;;;2141043;27;20005;-46
2022/07/03 02:44:33;;;;;;;;;;;;;;;;;;2140787;27;19923;-46
2022/07/03 02:45:34;;;;;;;;;;;;;;;;;;2140944;27;19929;-45
2022/07/03 02:46:50;;;;;;;;;;;;;;;;;;2140800;27;20030;-46
2022/07/03 02:47:51;;;;;;;;;;;;;;;;;;2141005;27;19975;-45
2022/07/03 02:48:52;;;;;;;;;;;;;;;;;;2141132;27;20017;-45
2022/07/03 02:49:53;;;;;;;;;;;;;;;;;;2140897;27;19966;-45
2022/07/03 02:50:54;;;;;;;;;;;;;;;;;;2141187;27;20365;-43
2022/07/03 02:51:57;;;;;;;;;;;;;;;;;;2140891;27;19926;-44
2022/07/03 02:52:58;;;;;;;;;;;;;;;;;;2140731;27;19922;-44
2022/07/03 02:54:01;;;;;;;;;;;;;;;;;;2141197;27;20017;-43
2022/07/03 02:55:03;;;;;;;;;;;;;;;;;;2140842;27;19926;-44
2022/07/03 02:56:04;;;;;;;;;;;;;;;;;;2140917;27;20014;-44
2022/07/03 02:57:05;;;;;;;;;;;;;;;;;;2140830;27;19927;-43
2022/07/03 02:58:05;;;;;;;;;;;;;;;;;;2140787;27;19922;-44
2022/07/03 02:59:06;;;;;;;;;;;;;;;;;;2140840;27;19950;-43
2022/07/03 03:00:07;;;;;;;;;;;;;;;;;;2140823;27;19929;-43
2022/07/03 03:01:08;;;;;;;;;;;;;;;;;;2140839;27;20389;-43
2022/07/03 03:02:09;;;;;;;;;;;;;;;;;;2140851;27;19969;-43
2022/07/03 03:03:10;;;;;;;;;;;;;;;;;;2140762;27;20295;-44
2022/07/03 03:04:11;;;;;;;;;;;;;;;;;;2140933;27;19923;-45
2022/07/03 03:05:12;;;;;;;;;;;;;;;;;;2140862;27;19923;-45
2022/07/03 03:06:13;;;;;;;;;;;;;;;;;;2141043;27;20390;-46
2022/07/03 03:07:17;;;;;;;;;;;;;;;;;;2139804;27;20159;-45
2022/07/03 03:08:19;;;;;;;;;;;;;;;;;;2140604;27;19922;-45
2022/07/03 03:09:20;;;;;;;;;;;;;;;;;;2140766;27;19923;-45
2022/07/03 03:10:21;;;;;;;;;;;;;;;;;;2140865;27;19930;-46
2022/07/03 03:11:21;;;;;;;;;;;;;;;;;;2136456;27;19923;-45
2022/07/03 03:12:22;;;;;;;;;;;;;;;;;;2132246;27;20382;-46
2022/07/03 03:13:23;;;;;;;;;;;;;;;;;;2132370;27;20432;-44
2022/07/03 03:14:24;;;;;;;;;;;;;;;;;;2132273;27;20022;-43
2022/07/03 03:15:26;;;;;;;;;;;;;;;;;;2132111;27;19927;-43
2022/07/03 03:16:26;;;;;;;;;;;;;;;;;;2132191;27;19923;-44
2022/07/03 03:17:27;;;;;;;;;;;;;;;;;;2132110;27;19930;-43
2022/07/03 03:18:29;;;;;;;;;;;;;;;;;;2131941;27;19971;-44
2022/07/03 03:19:29;;;;;;;;;;;;;;;;;;2132377;27;20001;-44
2022/07/03 03:20:30;;;;;;;;;;;;;;;;;;2140847;27;20172;-44
2022/07/03 03:21:31;;;;;;;;;;;;;;;;;;2140580;27;20414;-44
2022/07/03 03:22:32;;;;;;;;;;;;;;;;;;2140993;27;19923;-43
2022/07/03 03:23:33;;;;;;;;;;;;;;;;;;2140717;27;20018;-43
2022/07/03 03:24:34;;;;;;;;;;;;;;;;;;2140777;27;20439;-43
2022/07/03 03:25:35;;;;;;;;;;;;;;;;;;2140703;27;19970;-43
2022/07/03 03:26:36;;;;;;;;;;;;;;;;;;2140643;27;19958;-44
2022/07/03 03:27:36;;;;;;;;;;;;;;;;;;2140718;27;19967;-44
2022/07/03 03:28:37;;;;;;;;;;;;;;;;;;2140602;27;20035;-43
2022/07/03 03:29:38;;;;;;;;;;;;;;;;;;2140832;27;19971;-44
2022/07/03 03:30:39;;;;;;;;;;;;;;;;;;2140398;27;19929;-44
2022/07/03 03:31:40;;;;;;;;;;;;;;;;;;2132269;27;19923;-44
2022/07/03 03:32:41;;;;;;;;;;;;;;;;;;2132109;27;20337;-44
2022/07/03 03:33:42;;;;;;;;;;;;;;;;;;2131886;27;20431;-44
2022/07/03 03:34:43;;;;;;;;;;;;;;;;;;2131991;27;19958;-43
2022/07/03 03:35:43;;;;;;;;;;;;;;;;;;2131882;27;20487;-43
2022/07/03 03:36:44;;;;;;;;;;;;;;;;;;2131865;27;19937;-45
2022/07/03 03:37:45;;;;;;;;;;;;;;;;;;2132107;27;19966;-43
2022/07/03 03:38:46;;;;;;;;;;;;;;;;;;2132000;27;19923;-44
2022/07/03 03:39:47;;;;;;;;;;;;;;;;;;2132021;27;19923;-44
2022/07/03 03:40:48;;;;;;;;;;;;;;;;;;2132174;27;20383;-44
2022/07/03 03:41:49;;;;;;;;;;;;;;;;;;2131985;27;19923;-43
2022/07/03 03:42:50;;;;;;;;;;;;;;;;;;2132388;27;19923;-46
2022/07/03 03:43:50;;;;;;;;;;;;;;;;;;2132030;27;19971;-44
2022/07/03 03:44:51;;;;;;;;;;;;;;;;;;2131850;27;19930;-43
2022/07/03 03:45:52;;;;;;;;;;;;;;;;;;2131846;27;20010;-45
2022/07/03 03:46:53;;;;;;;;;;;;;;;;;;2132163;27;19923;-46
2022/07/03 03:47:54;;;;;;;;;;;;;;;;;;2131799;27;19927;-45
2022/07/03 03:48:55;;;;;;;;;;;;;;;;;;2131856;27;19927;-47
2022/07/03 03:49:56;;;;;;;;;;;;;;;;;;2131884;27;19923;-46
2022/07/03 03:50:57;;;;;;;;;;;;;;;;;;2131870;27;20288;-47
2022/07/03 03:51:57;;;;;;;;;;;;;;;;;;2132061;27;19923;-43
2022/07/03 03:52:58;;;;;;;;;;;;;;;;;;2131866;27;19930;-44
2022/07/03 03:53:59;;;;;;;;;;;;;;;;;;2131694;27;20402;-44
2022/07/03 03:55:00;;;;;;;;;;;;;;;;;;2132063;27;19929;-46
2022/07/03 03:56:01;;;;;;;;;;;;;;;;;;2131713;27;20018;-45
2022/07/03 03:57:02;;;;;;;;;;;;;;;;;;2131937;27;19930;-45
2022/07/03 03:58:04;;;;;;;;;;;;;;;;;;2131966;27;20006;-46
2022/07/03 03:59:05;;;;;;;;;;;;;;;;;;2131746;27;19927;-47
2022/07/03 04:00:06;;;;;;;;;;;;;;;;;;2131805;27;20468;-46
2022/07/03 04:01:07;;;;;;;;;;;;;;;;;;2131757;27;19968;-45
2022/07/03 04:02:08;;;;;;;;;;;;;;;;;;2131752;27;19923;-46
2022/07/03 04:03:09;;;;;;;;;;;;;;;;;;2131738;27;19923;-45
2022/07/03 04:04:12;;;;;;;;;;;;;;;;;;2131857;27;19934;-46
2022/07/03 04:05:13;;;;;;;;;;;;;;;;;;2131955;27;19931;-46
2022/07/03 04:06:13;;;;;;;;;;;;;;;;;;2131761;27;19970;-45
2022/07/03 04:07:14;;;;;;;;;;;;;;;;;;2131844;27;19938;-47
2022/07/03 04:08:15;;;;;;;;;;;;;;;;;;2132080;27;19927;-43
2022/07/03 04:09:16;;;;;;;;;;;;;;;;;;2131728;27;20389;-43
2022/07/03 04:10:17;;;;;;;;;;;;;;;;;;2131724;27;19924;-44
2022/07/03 04:11:18;;;;;;;;;;;;;;;;;;2131645;27;19946;-43
2022/07/03 04:12:19;;;;;;;;;;;;;;;;;;2131658;27;20065;-45
2022/07/03 04:13:20;;;;;;;;;;;;;;;;;;2131863;27;20013;-44
2022/07/03 04:14:20;;;;;;;;;;;;;;;;;;2131717;27;20372;-43
2022/07/03 04:15:21;;;;;;;;;;;;;;;;;;2131757;27;19964;-43
2022/07/03 04:16:22;;;;;;;;;;;;;;;;;;2131744;27;20022;-43
2022/07/03 04:17:23;;;;;;;;;;;;;;;;;;2131728;27;19927;-44
2022/07/03 04:18:24;;;;;;;;;;;;;;;;;;2131466;27;19923;-43
2022/07/03 04:19:28;;;;;;;;;;;;;;;;;;2131675;27;20371;-44
2022/07/03 04:20:30;;;;;;;;;;;;;;;;;;2131656;27;20383;-44
2022/07/03 04:21:31;;;;;;;;;;;;;;;;;;2131740;27;20006;-44
2022/07/03 04:22:33;;;;;;;;;;;;;;;;;;2131824;27;19923;-46
2022/07/03 04:23:34;;;;;;;;;;;;;;;;;;2131821;27;20401;-45
2022/07/03 04:24:35;;;;;;;;;;;;;;;;;;2131609;27;20196;-47
2022/07/03 04:25:36;;;;;;;;;;;;;;;;;;2131890;27;19931;-45
2022/07/03 04:26:36;;;;;;;;;;;;;;;;;;2133870;27;19923;-45
2022/07/03 04:27:37;;;;;;;;;;;;;;;;;;2140228;27;20466;-43
2022/07/03 04:28:58;;;;;;;;;;;;;;;;;;2140448;27;20291;-43
2022/07/03 04:29:59;;;;;;;;;;;;;;;;;;2140417;27;19923;-43
2022/07/03 04:31:00;;;;;;;;;;;;;;;;;;2140127;27;20367;-44
2022/07/03 04:32:01;;;;;;;;;;;;;;;;;;2140392;27;19926;-44
2022/07/03 04:33:02;;;;;;;;;;;;;;;;;;2140432;27;20295;-43
2022/07/03 04:34:03;;;;;;;;;;;;;;;;;;2140330;27;19954;-44
2022/07/03 04:35:03;;;;;;;;;;;;;;;;;;2140273;27;19922;-44
2022/07/03 04:36:04;;;;;;;;;;;;;;;;;;2140162;27;19996;-44
2022/07/03 04:37:05;;;;;;;;;;;;;;;;;;2140211;27;19934;-45
2022/07/03 04:38:06;;;;;;;;;;;;;;;;;;2140185;27;19923;-44
2022/07/03 04:39:07;;;;;;;;;;;;;;;;;;2140168;27;19923;-43
2022/07/03 04:40:08;;;;;;;;;;;;;;;;;;2140477;27;19923;-44
2022/07/03 04:41:09;;;;;;;;;;;;;;;;;;2140098;27;19930;-43
2022/07/03 04:42:10;;;;;;;;;;;;;;;;;;2140122;27;20406;-43
2022/07/03 04:43:10;;;;;;;;;;;;;;;;;;2140105;27;19948;-44
2022/07/03 04:44:11;;;;;;;;;;;;;;;;;;2140124;27;19971;-44
2022/07/03 04:45:12;;;;;;;;;;;;;;;;;;2140352;27;20009;-44
2022/07/03 04:46:13;;;;;;;;;;;;;;;;;;2139960;27;19923;-44
2022/07/03 04:47:14;;;;;;;;;;;;;;;;;;2140199;27;19930;-45
2022/07/03 04:48:16;;;;;;;;;;;;;;;;;;2140341;27;20017;-45
2022/07/03 04:49:17;;;;;;;;;;;;;;;;;;2140094;27;19972;-45
2022/07/03 04:50:18;;;;;;;;;;;;;;;;;;2140433;27;20010;-48
2022/07/03 04:51:18;;;;;;;;;;;;;;;;;;2140240;27;20521;-45
2022/07/03 04:52:20;;;;;;;;;;;;;;;;;;2140364;27;19968;-45
2022/07/03 04:53:20;;;;;;;;;;;;;;;;;;2140283;27;20255;-46
2022/07/03 04:54:21;;;;;;;;;;;;;;;;;;2140141;27;19929;-46
2022/07/03 04:55:22;;;;;;;;;;;;;;;;;;2140026;27;19950;-46
2022/07/03 04:56:23;;;;;;;;;;;;;;;;;;2140543;27;20279;-46
2022/07/03 04:57:24;;;;;;;;;;;;;;;;;;2140060;27;20100;-46
2022/07/03 04:58:25;;;;;;;;;;;;;;;;;;2139976;27;19927;-46
2022/07/03 04:59:26;;;;;;;;;;;;;;;;;;2140078;27;19967;-46
2022/07/03 05:00:27;;;;;;;;;;;;;;;;;;2140236;27;19971;-45
2022/07/03 05:01:28;;;;;;;;;;;;;;;;;;2140179;27;19996;-43
2022/07/03 05:02:29;;;;;;;;;;;;;;;;;;2140089;27;19950;-45
2022/07/03 05:03:29;;;;;;;;;;;;;;;;;;2140082;27;19970;-44
2022/07/03 05:04:30;;;;;;;;;;;;;;;;;;2140085;27;19958;-44
2022/07/03 05:05:31;;;;;;;;;;;;;;;;;;2140524;27;20354;-46
2022/07/03 05:06:32;;;;;;;;;;;;;;;;;;2139973;27;19962;-46
2022/07/03 05:07:33;;;;;;;;;;;;;;;;;;2140157;27;20056;-45
2022/07/03 05:08:34;;;;;;;;;;;;;;;;;;2140505;27;19971;-43
2022/07/03 05:09:34;;;;;;;;;;;;;;;;;;2140263;27;20150;-43
2022/07/03 05:10:35;;;;;;;;;;;;;;;;;;2140012;27;19978;-45
2022/07/03 05:11:36;;;;;;;;;;;;;;;;;;2133662;27;19930;-43
2022/07/03 05:12:37;;;;;;;;;;;;;;;;;;2131463;27;19932;-43
2022/07/03 05:13:41;;;;;;;;;;;;;;;;;;2131486;27;19972;-45
2022/07/03 05:14:42;;;;;;;;;;;;;;;;;;2131491;27;19926;-43
2022/07/03 05:15:43;;;;;;;;;;;;;;;;;;2131378;27;19923;-44
2022/07/03 05:16:44;;;;;;;;;;;;;;;;;;2131545;27;19963;-44
2022/07/03 05:17:45;;;;;;;;;;;;;;;;;;2131349;27;19938;-44
2022/07/03 05:18:46;;;;;;;;;;;;;;;;;;2131481;27;20303;-45
2022/07/03 05:19:46;;;;;;;;;;;;;;;;;;2131469;27;20345;-44
2022/07/03 05:20:48;;;;;;;;;;;;;;;;;;2131537;27;19923;-44
2022/07/03 05:21:48;;;;;;;;;;;;;;;;;;2131563;27;19931;-47
2022/07/03 05:22:49;;;;;;;;;;;;;;;;;;2133029;27;20384;-46
2022/07/03 05:23:50;;;;;;;;;;;;;;;;;;2139875;27;19962;-46
2022/07/03 05:24:51;;;;;;;;;;;;;;;;;;2140039;27;19966;-46
2022/07/03 05:25:53;;;;;;;;;;;;;;;;;;2139829;27;19922;-46
2022/07/03 05:26:53;;;;;;;;;;;;;;;;;;2140020;27;19929;-46
2022/07/03 05:27:54;;;;;;;;;;;;;;;;;;2139929;27;19923;-47
2022/07/03 05:28:55;;;;;;;;;;;;;;;;;;2140299;27;19954;-47
2022/07/03 05:29:56;;;;;;;;;;;;;;;;;;2140313;27;20009;-47
2022/07/03 05:30:57;;;;;;;;;;;;;;;;;;2140761;27;19986;-46
2022/07/03 05:31:58;;;;;;;;;;;;;;;;;;2141453;27;19923;-46
2022/07/03 05:32:59;;;;;;;;;;;;;;;;;;2141344;27;19973;-46
2022/07/03 05:34:00;;;;;;;;;;;;;;;;;;2141479;27;19923;-46
2022/07/03 05:35:00;;;;;;;;;;;;;;;;;;2141427;27;20287;-46
2022/07/03 05:36:02;;;;;;;;;;;;;;;;;;2141460;27;19923;-46
2022/07/03 05:37:02;;;;;;;;;;;;;;;;;;2141361;27;19957;-46
2022/07/03 05:38:03;;;;;;;;;;;;;;;;;;2141571;27;20371;-46
2022/07/03 05:40:24;;;;;;;;;;;;;;;;;;2141493;27;20063;-43
2022/07/03 05:41:25;;;;;;;;;;;;;;;;;;2141835;27;20013;-45
2022/07/03 05:42:26;;;;;;;;;;;;;;;;;;2141250;27;20025;-44
2022/07/03 05:43:27;;;;;;;;;;;;;;;;;;2141419;27;19958;-45
2022/07/03 05:44:27;;;;;;;;;;;;;;;;;;2141161;27;19929;-44
2022/07/03 05:45:28;;;;;;;;;;;;;;;;;;2141449;27;19965;-44
2022/07/03 05:46:29;;;;;;;;;;;;;;;;;;2141314;27;19971;-48
2022/07/03 05:47:30;;;;;;;;;;;;;;;;;;2141258;27;20268;-44
2022/07/03 05:48:31;;;;;;;;;;;;;;;;;;2141210;27;19934;-48
2022/07/03 05:49:32;;;;;;;;;;;;;;;;;;2141334;27;19930;-44
2022/07/03 05:50:33;;;;;;;;;;;;;;;;;;2141248;27;20388;-43
2022/07/03 05:51:34;;;;;;;;;;;;;;;;;;2141092;27;20260;-43
2022/07/03 05:52:35;;;;;;;;;;;;;;;;;;2141617;27;19940;-44
2022/07/03 05:53:36;;;;;;;;;;;;;;;;;;2141514;27;20001;-45
2022/07/03 05:54:37;;;;;;;;;;;;;;;;;;2141267;27;19923;-49
2022/07/03 05:55:38;;;;;;;;;;;;;;;;;;2141374;27;20375;-43
2022/07/03 05:56:39;;;;;;;;;;;;;;;;;;2141135;27;19962;-45
2022/07/03 05:57:40;;;;;;;;;;;;;;;;;;2141252;27;20020;-43
2022/07/03 05:58:41;;;;;;;;;;;;;;;;;;2141476;27;19926;-43
2022/07/03 05:59:42;;;;;;;;;;;;;;;;;;2141291;27;19927;-44
2022/07/03 06:00:43;;;;;;;;;;;;;;;;;;2141392;27;20294;-44
2022/07/03 06:01:44;;;;;;;;;;;;;;;;;;2141188;27;19975;-44
2022/07/03 06:02:45;;;;;;;;;;;;;;;;;;2141148;27;20155;-43
2022/07/03 06:03:46;;;;;;;;;;;;;;;;;;2141308;27;20013;-43
2022/07/03 06:04:47;;;;;;;;;;;;;;;;;;2141314;27;20082;-44
2022/07/03 06:05:47;;;;;;;;;;;;;;;;;;2141314;27;20018;-43
2022/07/03 06:06:48;;;;;;;;;;;;;;;;;;2141016;27;20447;-44
2022/07/03 06:07:50;;;;;;;;;;;;;;;;;;2141329;27;19923;-43
2022/07/03 06:08:50;;;;;;;;;;;;;;;;;;2141152;27;20339;-45
2022/07/03 06:09:51;;;;;;;;;;;;;;;;;;2141380;27;19977;-43
2022/07/03 06:10:52;;;;;;;;;;;;;;;;;;2141417;27;20005;-43
2022/07/03 06:11:53;;;;;;;;;;;;;;;;;;2132608;27;19923;-45
2022/07/03 06:12:54;;;;;;;;;;;;;;;;;;2132700;27;19923;-46
2022/07/03 06:13:55;;;;;;;;;;;;;;;;;;2132844;27;20065;-43
2022/07/03 06:14:56;;;;;;;;;;;;;;;;;;2132581;27;19927;-44
2022/07/03 06:16:02;;;;;;;;;;;;;;;;;;2132480;27;19923;-43
2022/07/03 06:17:02;;;;;;;;;;;;;;;;;;2132649;27;20387;-43
2022/07/03 06:18:04;;;;;;;;;;;;;;;;;;2132385;27;19923;-44
2022/07/03 06:19:04;;;;;;;;;;;;;;;;;;2134411;27;20045;-43
2022/07/03 06:20:06;;;;;;;;;;;;;;;;;;2141028;27;20446;-44
2022/07/03 06:21:06;;;;;;;;;;;;;;;;;;2140998;27;20018;-44
2022/07/03 06:22:07;;;;;;;;;;;;;;;;;;2141418;27;19959;-46
2022/07/03 06:23:08;;;;;;;;;;;;;;;;;;2141049;27;19923;-45
2022/07/03 06:24:29;;;;;;;;;;;;;;;;;;2141228;27;19926;-44
2022/07/03 06:25:30;;;;;;;;;;;;;;;;;;2141104;27;20021;-44
2022/07/03 06:26:31;;;;;;;;;;;;;;;;;;2140939;27;19923;-43
2022/07/03 06:27:32;;;;;;;;;;;;;;;;;;2140914;27;19922;-43
2022/07/03 06:28:33;;;;;;;;;;;;;;;;;;2141319;27;19923;-47
2022/07/03 06:29:34;;;;;;;;;;;;;;;;;;2141150;27;19967;-46
2022/07/03 06:30:34;;;;;;;;;;;;;;;;;;2141226;27;19923;-49
2022/07/03 06:31:35;;;;;;;;;;;;;;;;;;2140974;27;20356;-46
2022/07/03 06:32:36;;;;;;;;;;;;;;;;;;2140957;27;20291;-46
2022/07/03 06:33:37;;;;;;;;;;;;;;;;;;2140980;27;20103;-45
2022/07/03 06:34:38;;;;;;;;;;;;;;;;;;2141006;27;20452;-46
2022/07/03 06:35:39;;;;;;;;;;;;;;;;;;2141099;27;19973;-46
2022/07/03 06:36:40;;;;;;;;;;;;;;;;;;2141078;27;20010;-46
2022/07/03 06:37:41;;;;;;;;;;;;;;;;;;2141015;27;19923;-45
2022/07/03 06:38:41;;;;;;;;;;;;;;;;;;2141029;27;19933;-47
2022/07/03 06:39:42;;;;;;;;;;;;;;;;;;2141092;27;19923;-45
2022/07/03 06:40:43;;;;;;;;;;;;;;;;;;2140950;27;19961;-47
2022/07/03 06:41:44;;;;;;;;;;;;;;;;;;2140942;27;19926;-46
2022/07/03 06:42:45;;;;;;;;;;;;;;;;;;2141252;27;20074;-49
2022/07/03 06:43:46;;;;;;;;;;;;;;;;;;2140853;27;20002;-47
2022/07/03 06:44:47;;;;;;;;;;;;;;;;;;2140805;27;19969;-46
2022/07/03 06:45:52;;;;;;;;;;;;;;;;;;2141271;27;19931;-48
2022/07/03 06:46:53;;;;;;;;;;;;;;;;;;2140918;27;19923;-46
2022/07/03 06:47:54;;;;;;;;;;;;;;;;;;2140842;27;19923;-48
2022/07/03 06:48:55;;;;;;;;;;;;;;;;;;2141047;27;19965;-48
2022/07/03 06:49:56;;;;;;;;;;;;;;;;;;2140879;27;19926;-45
2022/07/03 06:50:56;;;;;;;;;;;;;;;;;;2140755;27;19923;-46
2022/07/03 06:51:57;;;;;;;;;;;;;;;;;;2141007;27;19958;-44
2022/07/03 06:52:58;;;;;;;;;;;;;;;;;;2141229;27;19923;-44
2022/07/03 06:53:59;;;;;;;;;;;;;;;;;;2140720;27;19948;-44
2022/07/03 06:55:00;;;;;;;;;;;;;;;;;;2141021;27;20454;-44
2022/07/03 06:56:01;;;;;;;;;;;;;;;;;;2141078;27;19922;-47
2022/07/03 06:57:02;;;;;;;;;;;;;;;;;;2140827;27;20150;-47
2022/07/03 06:58:03;;;;;;;;;;;;;;;;;;2140802;27;19980;-46
2022/07/03 06:59:03;;;;;;;;;;;;;;;;;;2140764;27;20410;-45